sensor_id;sensor_type;location;lat;lon;timestamp;pressure;altitude;pressure_sealevel;temperature;humidity
29935;BME280;19905;53.370;-6.314;2023-07-13T00:02:19;100938.88;;;13.23;100.00
29935;BME280;19905;53.370;-6.314;2023-07-13T00:04:49;100933.19;;;13.28;100.00
29935;BME280;19905;53.370;-6.314;2023-07-13T00:07:21;100942.00;;;13.29;100.00
29935;BME280;19905;53.370;-6.314;2023-07-13T00:09:53;100935.28;;;13.25;100.00
29935;BME280;19905;53.370;-6.314;2023-07-13T00:12:31;100940.59;;;13.25;100.00
29935;BME280;19905;53.370;-6.314;2023-07-13T00:15:06;100943.84;;;13.17;100.00
29935;BME280;19905;53.370;-6.314;2023-07-13T00:17:35;100945.06;;;13.13;100.00
29935;BME280;19905;53.370;-6.314;2023-07-13T00:20:07;100938.22;;;13.10;100.00
29935;BME280;19905;53.370;-6.314;2023-07-13T00:22:39;100942.19;;;13.05;100.00
29935;BME280;19905;53.370;-6.314;2023-07-13T00:25:15;100932.09;;;12.98;100.00
29935;BME280;19905;53.370;-6.314;2023-07-13T00:27:48;100932.81;;;13.01;100.00
29935;BME280;19905;53.370;-6.314;2023-07-13T00:30:18;100946.06;;;13.01;100.00
29935;BME280;19905;53.370;-6.314;2023-07-13T00:32:48;100949.78;;;13.09;100.00
29935;BME280;19905;53.370;-6.314;2023-07-13T00:35:34;100946.59;;;12.94;100.00
29935;BME280;19905;53.370;-6.314;2023-07-13T00:38:05;100939.22;;;12.98;100.00
29935;BME280;19905;53.370;-6.314;2023-07-13T00:40:35;100947.56;;;12.93;100.00
29935;BME280;19905;53.370;-6.314;2023-07-13T00:43:09;100948.31;;;12.84;100.00
29935;BME280;19905;53.370;-6.314;2023-07-13T00:48:46;100947.94;;;12.89;100.00
29935;BME280;19905;53.370;-6.314;2023-07-13T00:51:21;100949.75;;;12.88;100.00
29935;BME280;19905;53.370;-6.314;2023-07-13T00:53:56;100945.28;;;12.89;100.00
29935;BME280;19905;53.370;-6.314;2023-07-13T00:56:28;100945.59;;;12.95;100.00
29935;BME280;19905;53.370;-6.314;2023-07-13T00:59:00;100953.56;;;12.95;100.00
29935;BME280;19905;53.370;-6.314;2023-07-13T01:01:31;100954.78;;;12.91;100.00
29935;BME280;19905;53.370;-6.314;2023-07-13T01:04:01;100944.91;;;12.93;100.00
29935;BME280;19905;53.370;-6.314;2023-07-13T01:06:35;100930.28;;;12.99;100.00
29935;BME280;19905;53.370;-6.314;2023-07-13T01:09:08;100937.03;;;13.03;100.00
29935;BME280;19905;53.370;-6.314;2023-07-13T01:11:42;100938.38;;;12.97;100.00
29935;BME280;19905;53.370;-6.314;2023-07-13T01:14:12;100934.38;;;13.03;100.00
29935;BME280;19905;53.370;-6.314;2023-07-13T01:16:42;100935.34;;;13.02;100.00
29935;BME280;19905;53.370;-6.314;2023-07-13T01:19:18;100945.81;;;13.04;100.00
29935;BME280;19905;53.370;-6.314;2023-07-13T01:21:54;100943.56;;;12.99;100.00
29935;BME280;19905;53.370;-6.314;2023-07-13T01:24:25;100942.72;;;12.98;100.00
29935;BME280;19905;53.370;-6.314;2023-07-13T01:26:54;100938.09;;;13.01;100.00
29935;BME280;19905;53.370;-6.314;2023-07-13T01:29:23;100931.66;;;12.93;100.00
29935;BME280;19905;53.370;-6.314;2023-07-13T01:31:58;100935.97;;;12.94;100.00
29935;BME280;19905;53.370;-6.314;2023-07-13T01:34:30;100936.22;;;12.91;100.00
29935;BME280;19905;53.370;-6.314;2023-07-13T01:37:07;100933.09;;;12.86;100.00
29935;BME280;19905;53.370;-6.314;2023-07-13T01:39:36;100929.50;;;12.87;100.00
29935;BME280;19905;53.370;-6.314;2023-07-13T01:42:05;100921.66;;;12.86;100.00
29935;BME280;19905;53.370;-6.314;2023-07-13T01:44:35;100929.75;;;12.84;100.00
29935;BME280;19905;53.370;-6.314;2023-07-13T01:47:07;100934.09;;;12.85;100.00
29935;BME280;19905;53.370;-6.314;2023-07-13T01:49:37;100926.13;;;12.85;100.00
29935;BME280;19905;53.370;-6.314;2023-07-13T01:52:09;100922.78;;;12.83;100.00
29935;BME280;19905;53.370;-6.314;2023-07-13T01:54:40;100923.16;;;12.79;100.00
29935;BME280;19905;53.370;-6.314;2023-07-13T02:00:10;100927.88;;;12.75;100.00
29935;BME280;19905;53.370;-6.314;2023-07-13T02:02:39;100925.06;;;12.77;100.00
29935;BME280;19905;53.370;-6.314;2023-07-13T02:05:14;100926.28;;;12.72;100.00
29935;BME280;19905;53.370;-6.314;2023-07-13T02:07:47;100924.25;;;12.76;100.00
29935;BME280;19905;53.370;-6.314;2023-07-13T02:10:19;100921.44;;;12.78;100.00
29935;BME280;19905;53.370;-6.314;2023-07-13T02:12:54;100925.22;;;12.75;100.00
29935;BME280;19905;53.370;-6.314;2023-07-13T02:15:32;100919.91;;;12.75;100.00
29935;BME280;19905;53.370;-6.314;2023-07-13T02:18:00;100924.25;;;12.76;100.00
29935;BME280;19905;53.370;-6.314;2023-07-13T02:20:32;100923.41;;;12.76;100.00
29935;BME280;19905;53.370;-6.314;2023-07-13T02:23:03;100922.66;;;12.73;100.00
29935;BME280;19905;53.370;-6.314;2023-07-13T02:25:36;100920.16;;;12.72;100.00
29935;BME280;19905;53.370;-6.314;2023-07-13T02:28:07;100928.34;;;12.69;100.00
29935;BME280;19905;53.370;-6.314;2023-07-13T02:30:38;100929.84;;;12.62;100.00
29935;BME280;19905;53.370;-6.314;2023-07-13T02:33:08;100934.41;;;12.60;100.00
29935;BME280;19905;53.370;-6.314;2023-07-13T02:35:45;100929.69;;;12.63;100.00
29935;BME280;19905;53.370;-6.314;2023-07-13T02:38:18;100925.97;;;12.66;100.00
29935;BME280;19905;53.370;-6.314;2023-07-13T02:40:49;100927.50;;;12.68;100.00
29935;BME280;19905;53.370;-6.314;2023-07-13T02:43:19;100931.00;;;12.69;100.00
29935;BME280;19905;53.370;-6.314;2023-07-13T02:45:51;100933.41;;;12.72;100.00
29935;BME280;19905;53.370;-6.314;2023-07-13T02:48:20;100937.28;;;12.68;100.00
29935;BME280;19905;53.370;-6.314;2023-07-13T02:50:52;100929.22;;;12.69;100.00
29935;BME280;19905;53.370;-6.314;2023-07-13T02:53:23;100935.09;;;12.73;100.00
29935;BME280;19905;53.370;-6.314;2023-07-13T02:55:54;100938.00;;;12.70;100.00
29935;BME280;19905;53.370;-6.314;2023-07-13T02:58:23;100935.72;;;12.65;100.00
29935;BME280;19905;53.370;-6.314;2023-07-13T03:00:58;100931.13;;;12.67;100.00
29935;BME280;19905;53.370;-6.314;2023-07-13T03:03:27;100929.22;;;12.69;100.00
29935;BME280;19905;53.370;-6.314;2023-07-13T03:05:59;100936.22;;;12.59;100.00
29935;BME280;19905;53.370;-6.314;2023-07-13T03:08:38;100936.22;;;12.59;100.00
29935;BME280;19905;53.370;-6.314;2023-07-13T03:11:10;100936.09;;;12.61;100.00
29935;BME280;19905;53.370;-6.314;2023-07-13T03:13:47;100931.28;;;12.66;100.00
29935;BME280;19905;53.370;-6.314;2023-07-13T03:16:23;100932.94;;;12.67;100.00
29935;BME280;19905;53.370;-6.314;2023-07-13T03:18:54;100938.94;;;12.69;100.00
29935;BME280;19905;53.370;-6.314;2023-07-13T03:21:23;100939.81;;;12.69;100.00
29935;BME280;19905;53.370;-6.314;2023-07-13T03:23:56;100932.94;;;12.67;100.00
29935;BME280;19905;53.370;-6.314;2023-07-13T03:26:27;100925.22;;;12.64;100.00
29935;BME280;19905;53.370;-6.314;2023-07-13T03:28:57;100930.66;;;12.62;100.00
29935;BME280;19905;53.370;-6.314;2023-07-13T03:31:32;100926.22;;;12.63;100.00
29935;BME280;19905;53.370;-6.314;2023-07-13T03:34:02;100935.13;;;12.62;100.00
29935;BME280;19905;53.370;-6.314;2023-07-13T03:36:32;100926.22;;;12.63;100.00
29935;BME280;19905;53.370;-6.314;2023-07-13T03:39:04;100922.13;;;12.59;100.00
29935;BME280;19905;53.370;-6.314;2023-07-13T03:41:37;100924.66;;;12.60;100.00
29935;BME280;19905;53.370;-6.314;2023-07-13T03:44:07;100925.88;;;12.56;100.00
29935;BME280;19905;53.370;-6.314;2023-07-13T03:46:38;100935.75;;;12.54;100.00
29935;BME280;19905;53.370;-6.314;2023-07-13T03:49:08;100944.19;;;12.48;100.00
29935;BME280;19905;53.370;-6.314;2023-07-13T03:51:37;100950.47;;;12.47;100.00
29935;BME280;19905;53.370;-6.314;2023-07-13T03:54:08;100941.69;;;12.46;100.00
29935;BME280;19905;53.370;-6.314;2023-07-13T03:56:45;100946.72;;;12.50;100.00
29935;BME280;19905;53.370;-6.314;2023-07-13T03:59:15;100950.09;;;12.52;100.00
29935;BME280;19905;53.370;-6.314;2023-07-13T04:01:52;100943.69;;;12.54;100.00
29935;BME280;19905;53.370;-6.314;2023-07-13T04:04:29;100950.09;;;12.52;100.00
29935;BME280;19905;53.370;-6.314;2023-07-13T04:06:59;100944.34;;;12.46;100.00
29935;BME280;19905;53.370;-6.314;2023-07-13T04:09:34;100942.63;;;12.57;100.00
29935;BME280;19905;53.370;-6.314;2023-07-13T04:12:05;100944.66;;;12.53;100.00
29935;BME280;19905;53.370;-6.314;2023-07-13T04:14:34;100937.53;;;12.65;100.00
29935;BME280;19905;53.370;-6.314;2023-07-13T04:17:02;100943.53;;;12.67;100.00
29935;BME280;19905;53.370;-6.314;2023-07-13T04:19:33;100945.88;;;12.60;100.00
29935;BME280;19905;53.370;-6.314;2023-07-13T04:22:08;100944.44;;;12.56;100.00
29935;BME280;19905;53.370;-6.314;2023-07-13T04:24:39;100945.25;;;12.57;100.00
29935;BME280;19905;53.370;-6.314;2023-07-13T04:27:08;100955.72;;;12.58;100.00
29935;BME280;19905;53.370;-6.314;2023-07-13T04:29:38;100953.69;;;12.62;100.00
29935;BME280;19905;53.370;-6.314;2023-07-13T04:32:09;100952.47;;;12.66;100.00
29935;BME280;19905;53.370;-6.314;2023-07-13T04:34:41;100950.78;;;12.65;100.00
29935;BME280;19905;53.370;-6.314;2023-07-13T04:37:10;100959.31;;;12.68;100.00
29935;BME280;19905;53.370;-6.314;2023-07-13T04:39:41;100960.03;;;12.70;100.00
29935;BME280;19905;53.370;-6.314;2023-07-13T04:42:15;100956.41;;;12.71;100.00
29935;BME280;19905;53.370;-6.314;2023-07-13T04:44:48;100961.03;;;12.69;100.00
29935;BME280;19905;53.370;-6.314;2023-07-13T04:47:33;100960.28;;;12.67;100.00
29935;BME280;19905;53.370;-6.314;2023-07-13T04:50:04;100960.16;;;12.69;100.00
29935;BME280;19905;53.370;-6.314;2023-07-13T04:52:33;100961.25;;;12.66;100.00
29935;BME280;19905;53.370;-6.314;2023-07-13T04:55:06;100975.84;;;12.61;100.00
29935;BME280;19905;53.370;-6.314;2023-07-13T04:57:35;100970.41;;;12.62;100.00
29935;BME280;19905;53.370;-6.314;2023-07-13T05:00:06;100972.59;;;12.57;100.00
29935;BME280;19905;53.370;-6.314;2023-07-13T05:02:38;100972.22;;;12.62;100.00
29935;BME280;19905;53.370;-6.314;2023-07-13T05:05:07;100968.13;;;12.58;100.00
29935;BME280;19905;53.370;-6.314;2023-07-13T05:07:42;100969.81;;;12.59;100.00
29935;BME280;19905;53.370;-6.314;2023-07-13T05:10:20;100959.22;;;12.59;100.00
29935;BME280;19905;53.370;-6.314;2023-07-13T05:12:55;100971.50;;;12.60;100.00
29935;BME280;19905;53.370;-6.314;2023-07-13T05:15:33;100975.72;;;12.62;100.00
29935;BME280;19905;53.370;-6.314;2023-07-13T05:18:02;100974.66;;;12.65;100.00
29935;BME280;19905;53.370;-6.314;2023-07-13T05:20:31;100983.63;;;12.73;100.00
29935;BME280;19905;53.370;-6.314;2023-07-13T05:23:01;100982.78;;;12.84;100.00
29935;BME280;19905;53.370;-6.314;2023-07-13T05:25:32;100977.94;;;12.89;100.00
29935;BME280;19905;53.370;-6.314;2023-07-13T05:28:03;100977.69;;;12.92;100.00
29935;BME280;19905;53.370;-6.314;2023-07-13T05:30:37;100983.94;;;13.03;100.00
29935;BME280;19905;53.370;-6.314;2023-07-13T05:33:06;100981.22;;;13.14;100.00
29935;BME280;19905;53.370;-6.314;2023-07-13T05:35:36;100979.69;;;13.11;100.00
29935;BME280;19905;53.370;-6.314;2023-07-13T05:38:09;100978.69;;;13.12;100.00
29935;BME280;19905;53.370;-6.314;2023-07-13T05:40:48;100985.22;;;13.08;100.00
29935;BME280;19905;53.370;-6.314;2023-07-13T05:43:26;100981.97;;;13.05;100.00
29935;BME280;19905;53.370;-6.314;2023-07-13T05:45:56;100981.72;;;13.08;100.00
29935;BME280;19905;53.370;-6.314;2023-07-13T05:48:25;100985.69;;;13.13;100.00
29935;BME280;19905;53.370;-6.314;2023-07-13T05:51:04;100996.75;;;13.18;100.00
29935;BME280;19905;53.370;-6.314;2023-07-13T05:53:34;100986.25;;;13.28;100.00
29935;BME280;19905;53.370;-6.314;2023-07-13T05:56:06;100986.97;;;13.30;100.00
29935;BME280;19905;53.370;-6.314;2023-07-13T05:58:36;100981.53;;;13.32;100.00
29935;BME280;19905;53.370;-6.314;2023-07-13T06:01:13;100981.03;;;13.38;100.00
29935;BME280;19905;53.370;-6.314;2023-07-13T06:03:43;100982.56;;;13.40;100.00
29935;BME280;19905;53.370;-6.314;2023-07-13T06:06:21;100980.31;;;13.36;100.00
29935;BME280;19905;53.370;-6.314;2023-07-13T06:08:50;100994.75;;;13.43;100.00
29935;BME280;19905;53.370;-6.314;2023-07-13T06:11:24;100998.84;;;13.47;100.00
29935;BME280;19905;53.370;-6.314;2023-07-13T06:13:54;100994.81;;;13.53;100.00
29935;BME280;19905;53.370;-6.314;2023-07-13T06:16:23;100999.16;;;13.54;100.00
29935;BME280;19905;53.370;-6.314;2023-07-13T06:18:52;101008.28;;;13.61;100.00
29935;BME280;19905;53.370;-6.314;2023-07-13T06:21:22;101009.44;;;13.68;100.00
29935;BME280;19905;53.370;-6.314;2023-07-13T06:23:52;101003.69;;;13.63;100.00
29935;BME280;19905;53.370;-6.314;2023-07-13T06:26:22;101005.34;;;13.64;100.00
29935;BME280;19905;53.370;-6.314;2023-07-13T06:28:52;101013.38;;;13.73;100.00
29935;BME280;19905;53.370;-6.314;2023-07-13T06:31:22;101013.28;;;13.75;100.00
29935;BME280;19905;53.370;-6.314;2023-07-13T06:33:51;101018.88;;;13.82;100.00
29935;BME280;19905;53.370;-6.314;2023-07-13T06:36:20;101013.63;;;13.91;100.00
29935;BME280;19905;53.370;-6.314;2023-07-13T06:38:49;101016.63;;;13.98;100.00
29935;BME280;19905;53.370;-6.314;2023-07-13T06:41:17;101010.06;;;14.02;100.00
29935;BME280;19905;53.370;-6.314;2023-07-13T06:43:48;101003.78;;;14.03;100.00
29935;BME280;19905;53.370;-6.314;2023-07-13T06:46:17;101011.59;;;14.05;100.00
29935;BME280;19905;53.370;-6.314;2023-07-13T06:48:46;101007.97;;;14.06;100.00
29935;BME280;19905;53.370;-6.314;2023-07-13T06:51:15;101012.50;;;14.15;100.00
29935;BME280;19905;53.370;-6.314;2023-07-13T06:53:44;101012.94;;;14.20;100.00
29935;BME280;19905;53.370;-6.314;2023-07-13T06:56:15;101010.16;;;14.21;100.00
29935;BME280;19905;53.370;-6.314;2023-07-13T06:58:44;101013.53;;;14.33;100.00
29935;BME280;19905;53.370;-6.314;2023-07-13T07:01:13;101012.63;;;14.44;100.00
29935;BME280;19905;53.370;-6.314;2023-07-13T07:03:44;101007.44;;;14.42;100.00
29935;BME280;19905;53.370;-6.314;2023-07-13T07:06:26;101004.38;;;14.47;100.00
29935;BME280;19905;53.370;-6.314;2023-07-13T08:12:45;101014.06;;;15.27;100.00
29935;BME280;19905;53.370;-6.314;2023-07-13T15:26:25;100830.09;;;19.92;100.00
29935;BME280;19905;53.370;-6.314;2023-07-13T15:28:53;100829.50;;;19.74;100.00
29935;BME280;19905;53.370;-6.314;2023-07-13T15:31:25;100823.50;;;19.72;100.00
29935;BME280;19905;53.370;-6.314;2023-07-13T15:33:57;100814.13;;;19.60;100.00
29935;BME280;19905;53.370;-6.314;2023-07-13T15:36:26;100814.13;;;19.60;100.00
29935;BME280;19905;53.370;-6.314;2023-07-13T15:38:56;100818.50;;;19.61;100.00
29935;BME280;19905;53.370;-6.314;2023-07-13T15:41:27;100819.50;;;19.51;100.00
29935;BME280;19905;53.370;-6.314;2023-07-13T15:43:58;100824.72;;;19.61;100.00
29935;BME280;19905;53.370;-6.314;2023-07-13T15:46:28;100816.47;;;19.71;100.00
29935;BME280;19905;53.370;-6.314;2023-07-13T15:48:57;100816.28;;;19.72;100.00
29935;BME280;19905;53.370;-6.314;2023-07-13T15:51:28;100811.44;;;19.68;100.00
29935;BME280;19905;53.370;-6.314;2023-07-13T15:53:59;100815.34;;;19.88;100.00
29935;BME280;19905;53.370;-6.314;2023-07-13T15:56:35;100794.69;;;19.97;100.00
29935;BME280;19905;53.370;-6.314;2023-07-13T15:59:16;100789.19;;;19.98;100.00
29935;BME280;19905;53.370;-6.314;2023-07-13T16:07:41;100861.94;;;17.99;100.00
29935;BME280;19905;53.370;-6.314;2023-07-13T16:10:32;100892.34;;;17.64;100.00
29935;BME280;19905;53.370;-6.314;2023-07-13T16:13:44;100927.38;;;17.17;100.00
29935;BME280;19905;53.370;-6.314;2023-07-13T18:26:42;100815.13;;;17.79;100.00
29935;BME280;19905;53.370;-6.314;2023-07-13T18:29:12;100820.97;;;17.83;100.00
29935;BME280;19905;53.370;-6.314;2023-07-13T18:31:42;100833.19;;;17.59;100.00
29935;BME280;19905;53.370;-6.314;2023-07-13T18:34:13;100831.50;;;17.58;100.00
29935;BME280;19905;53.370;-6.314;2023-07-13T18:36:43;100838.44;;;17.43;100.00
29935;BME280;19905;53.370;-6.314;2023-07-13T18:39:14;100840.25;;;17.34;100.00
29935;BME280;19905;53.370;-6.314;2023-07-13T18:41:45;100840.41;;;17.33;100.00
29935;BME280;19905;53.370;-6.314;2023-07-13T18:44:14;100850.38;;;17.31;100.00
29935;BME280;19905;53.370;-6.314;2023-07-13T18:46:42;100843.50;;;17.20;100.00
29935;BME280;19905;53.370;-6.314;2023-07-13T18:49:12;100849.31;;;17.15;100.00
29935;BME280;19905;53.370;-6.314;2023-07-13T18:51:41;100845.69;;;17.24;100.00
29935;BME280;19905;53.370;-6.314;2023-07-13T18:54:13;100840.53;;;17.23;100.00
29935;BME280;19905;53.370;-6.314;2023-07-13T18:56:42;100832.88;;;17.28;100.00
29935;BME280;19905;53.370;-6.314;2023-07-13T18:59:13;100822.06;;;17.38;100.00
29935;BME280;19905;53.370;-6.314;2023-07-13T19:01:42;100819.13;;;17.49;100.00
29935;BME280;19905;53.370;-6.314;2023-07-13T19:04:26;100818.50;;;17.55;100.00
29935;BME280;19905;53.370;-6.314;2023-07-13T19:06:56;100816.19;;;17.60;100.00
29935;BME280;19905;53.370;-6.314;2023-07-13T19:09:25;100816.25;;;17.42;100.00
29935;BME280;19905;53.370;-6.314;2023-07-13T19:11:54;100814.28;;;17.52;100.00
29935;BME280;19905;53.370;-6.314;2023-07-13T19:14:25;100820.75;;;17.42;100.00
29935;BME280;19905;53.370;-6.314;2023-07-13T19:16:54;100803.53;;;17.36;100.00
29935;BME280;19905;53.370;-6.314;2023-07-13T19:19:24;100818.94;;;17.16;100.00
29935;BME280;19905;53.370;-6.314;2023-07-13T19:21:54;100819.00;;;17.24;100.00
29935;BME280;19905;53.370;-6.314;2023-07-13T19:24:25;100820.50;;;17.27;100.00
29935;BME280;19905;53.370;-6.314;2023-07-13T19:26:54;100821.31;;;17.19;100.00
29935;BME280;19905;53.370;-6.314;2023-07-13T19:29:27;100823.06;;;17.11;100.00
29935;BME280;19905;53.370;-6.314;2023-07-13T19:31:57;100829.25;;;17.11;100.00
29935;BME280;19905;53.370;-6.314;2023-07-13T19:34:26;100849.06;;;16.83;100.00
29935;BME280;19905;53.370;-6.314;2023-07-13T19:36:58;100859.88;;;16.63;100.00
29935;BME280;19905;53.370;-6.314;2023-07-13T19:39:33;100881.22;;;16.18;100.00
29935;BME280;19905;53.370;-6.314;2023-07-13T19:42:14;100892.81;;;15.71;100.00
29935;BME280;19905;53.370;-6.314;2023-07-13T19:44:45;100896.19;;;15.54;100.00
29935;BME280;19905;53.370;-6.314;2023-07-13T19:47:15;100899.84;;;15.43;100.00
29935;BME280;19905;53.370;-6.314;2023-07-13T19:49:45;100893.13;;;15.39;100.00
29935;BME280;19905;53.370;-6.314;2023-07-13T19:52:16;100888.09;;;15.46;100.00
29935;BME280;19905;53.370;-6.314;2023-07-13T19:54:47;100882.75;;;15.46;100.00
29935;BME280;19905;53.370;-6.314;2023-07-13T19:57:20;100883.59;;;15.46;100.00
29935;BME280;19905;53.370;-6.314;2023-07-13T19:59:52;100873.31;;;15.61;100.00
29935;BME280;19905;53.370;-6.314;2023-07-13T20:02:23;100866.03;;;15.73;100.00
29935;BME280;19905;53.370;-6.314;2023-07-13T20:04:52;100869.09;;;15.78;100.00
29935;BME280;19905;53.370;-6.314;2023-07-13T20:07:22;100871.75;;;15.78;100.00
29935;BME280;19905;53.370;-6.314;2023-07-13T20:09:52;100864.31;;;15.82;100.00
29935;BME280;19905;53.370;-6.314;2023-07-13T20:12:23;100865.16;;;15.82;100.00
29935;BME280;19905;53.370;-6.314;2023-07-13T20:14:54;100864.19;;;15.73;100.00
29935;BME280;19905;53.370;-6.314;2023-07-13T20:17:31;100861.09;;;15.78;100.00
29935;BME280;19905;53.370;-6.314;2023-07-13T20:20:15;100856.22;;;15.73;100.00
29935;BME280;19905;53.370;-6.314;2023-07-13T20:22:46;100855.53;;;15.71;100.00
29935;BME280;19905;53.370;-6.314;2023-07-13T20:25:16;100856.50;;;15.70;100.00
29935;BME280;19905;53.370;-6.314;2023-07-13T20:27:45;100863.06;;;15.76;100.00
29935;BME280;19905;53.370;-6.314;2023-07-13T20:30:16;100861.81;;;15.70;100.00
29935;BME280;19905;53.370;-6.314;2023-07-13T20:32:46;100855.66;;;15.70;100.00
29935;BME280;19905;53.370;-6.314;2023-07-13T20:35:27;100864.63;;;15.69;100.00
29935;BME280;19905;53.370;-6.314;2023-07-13T20:37:57;100863.97;;;15.67;100.00
29935;BME280;19905;53.370;-6.314;2023-07-13T20:40:27;100869.81;;;15.70;100.00
29935;BME280;19905;53.370;-6.314;2023-07-13T20:42:58;100873.41;;;15.79;100.00
29935;BME280;19905;53.370;-6.314;2023-07-13T20:45:29;100870.31;;;15.84;100.00
29935;BME280;19905;53.370;-6.314;2023-07-13T20:48:17;100860.75;;;15.91;100.00
29935;BME280;19905;53.370;-6.314;2023-07-13T20:51:00;100864.00;;;15.85;100.00
29935;BME280;19905;53.370;-6.314;2023-07-13T20:53:33;100873.91;;;15.92;100.00
29935;BME280;19905;53.370;-6.314;2023-07-13T20:56:04;100867.91;;;15.90;100.00
29935;BME280;19905;53.370;-6.314;2023-07-13T20:58:35;100876.97;;;15.97;100.00
29935;BME280;19905;53.370;-6.314;2023-07-13T21:01:08;100879.34;;;16.00;100.00
29935;BME280;19905;53.370;-6.314;2023-07-13T21:03:41;100880.19;;;16.01;100.00
29935;BME280;19905;53.370;-6.314;2023-07-13T21:06:15;100875.41;;;16.05;100.00
29935;BME280;19905;53.370;-6.314;2023-07-13T21:08:44;100878.06;;;16.05;100.00
29935;BME280;19905;53.370;-6.314;2023-07-13T21:11:13;100866.13;;;16.09;100.00
29935;BME280;19905;53.370;-6.314;2023-07-13T21:13:42;100853.09;;;16.06;100.00
29935;BME280;19905;53.370;-6.314;2023-07-13T21:16:18;100859.41;;;16.05;100.00
29935;BME280;19905;53.370;-6.314;2023-07-13T21:18:49;100867.41;;;16.05;100.00
29935;BME280;19905;53.370;-6.314;2023-07-13T21:21:19;100870.53;;;16.00;100.00
29935;BME280;19905;53.370;-6.314;2023-07-13T21:23:50;100862.03;;;15.87;100.00
29935;BME280;19905;53.370;-6.314;2023-07-13T21:26:20;100864.19;;;15.73;100.00
29935;BME280;19905;53.370;-6.314;2023-07-13T21:28:49;100868.28;;;15.68;100.00
29935;BME280;19905;53.370;-6.314;2023-07-13T21:31:23;100875.56;;;15.66;100.00
29935;BME280;19905;53.370;-6.314;2023-07-13T21:33:57;100883.69;;;15.74;100.00
29935;BME280;19905;53.370;-6.314;2023-07-13T21:36:27;100888.28;;;15.62;100.00
29935;BME280;19905;53.370;-6.314;2023-07-13T21:38:59;100891.84;;;15.53;100.00
29935;BME280;19905;53.370;-6.314;2023-07-13T21:41:31;100891.97;;;15.51;100.00
29935;BME280;19905;53.370;-6.314;2023-07-13T21:44:00;100883.19;;;15.41;100.00
29935;BME280;19905;53.370;-6.314;2023-07-13T21:46:31;100887.09;;;15.47;100.00
29935;BME280;19905;53.370;-6.314;2023-07-13T21:48:59;100884.28;;;15.48;100.00
29935;BME280;19905;53.370;-6.314;2023-07-13T21:51:28;100885.66;;;15.52;100.00
29935;BME280;19905;53.370;-6.314;2023-07-13T21:53:56;100884.00;;;15.51;100.00
29935;BME280;19905;53.370;-6.314;2023-07-13T21:56:25;100884.28;;;15.48;100.00
29935;BME280;19905;53.370;-6.314;2023-07-13T21:58:53;100878.44;;;15.45;100.00
29935;BME280;19905;53.370;-6.314;2023-07-13T22:01:25;100883.72;;;15.55;100.00
29935;BME280;19905;53.370;-6.314;2023-07-13T22:03:59;100869.97;;;15.59;100.00
29935;BME280;19905;53.370;-6.314;2023-07-13T22:06:29;100867.47;;;15.67;100.00
29935;BME280;19905;53.370;-6.314;2023-07-13T22:08:58;100860.00;;;15.71;100.00
29935;BME280;19905;53.370;-6.314;2023-07-13T22:11:27;100862.22;;;15.75;100.00
29935;BME280;19905;53.370;-6.314;2023-07-13T22:13:55;100855.75;;;15.78;100.00
29935;BME280;19905;53.370;-6.314;2023-07-13T22:16:26;100849.31;;;15.81;100.00
29935;BME280;19905;53.370;-6.314;2023-07-13T22:18:59;100842.28;;;15.80;100.00
29935;BME280;19905;53.370;-6.314;2023-07-13T22:21:29;100844.44;;;15.76;100.00
29935;BME280;19905;53.370;-6.314;2023-07-13T22:23:58;100837.13;;;15.78;100.00
29935;BME280;19905;53.370;-6.314;2023-07-13T22:26:30;100834.63;;;15.77;100.00
29935;BME280;19905;53.370;-6.314;2023-07-13T22:29:01;100832.91;;;15.75;100.00
29935;BME280;19905;53.370;-6.314;2023-07-13T22:31:30;100834.28;;;15.80;100.00
29935;BME280;19905;53.370;-6.314;2023-07-13T22:34:00;100825.19;;;15.82;100.00
29935;BME280;19905;53.370;-6.314;2023-07-13T22:36:28;100824.75;;;15.87;100.00
29935;BME280;19905;53.370;-6.314;2023-07-13T22:38:57;100819.88;;;15.82;100.00
29935;BME280;19905;53.370;-6.314;2023-07-13T22:41:25;100820.53;;;15.84;100.00
29935;BME280;19905;53.370;-6.314;2023-07-13T22:43:54;100810.59;;;15.86;100.00
29935;BME280;19905;53.370;-6.314;2023-07-13T22:46:25;100811.13;;;15.90;100.00
29935;BME280;19905;53.370;-6.314;2023-07-13T22:48:56;100813.94;;;15.88;100.00
29935;BME280;19905;53.370;-6.314;2023-07-13T22:51:26;100804.88;;;15.81;100.00
29935;BME280;19905;53.370;-6.314;2023-07-13T22:53:55;100801.38;;;15.81;100.00
29935;BME280;19905;53.370;-6.314;2023-07-13T22:56:25;100796.94;;;15.89;100.00
29935;BME280;19905;53.370;-6.314;2023-07-13T22:58:53;100779.66;;;15.75;100.00
29935;BME280;19905;53.370;-6.314;2023-07-13T23:01:24;100781.94;;;15.70;100.00
29935;BME280;19905;53.370;-6.314;2023-07-13T23:03:56;100771.16;;;15.72;100.00
29935;BME280;19905;53.370;-6.314;2023-07-13T23:06:30;100763.53;;;15.77;100.00
29935;BME280;19905;53.370;-6.314;2023-07-13T23:09:01;100756.44;;;15.68;100.00
29935;BME280;19905;53.370;-6.314;2023-07-13T23:11:30;100748.31;;;15.60;100.00
29935;BME280;19905;53.370;-6.314;2023-07-13T23:13:59;100749.31;;;15.59;100.00
29935;BME280;19905;53.370;-6.314;2023-07-13T23:16:30;100746.25;;;15.54;100.00
29935;BME280;19905;53.370;-6.314;2023-07-13T23:18:59;100742.31;;;15.67;100.00
29935;BME280;19905;53.370;-6.314;2023-07-13T23:21:31;100742.28;;;15.58;100.00
29935;BME280;19905;53.370;-6.314;2023-07-13T23:24:01;100732.97;;;15.54;100.00
29935;BME280;19905;53.370;-6.314;2023-07-13T23:26:29;100730.56;;;15.50;100.00
29935;BME280;19905;53.370;-6.314;2023-07-13T23:28:58;100733.41;;;15.49;100.00
29935;BME280;19905;53.370;-6.314;2023-07-13T23:31:29;100725.09;;;15.52;100.00